Latest Coastal Weather Observations for Red Rocks Point

IDW60701

Issued at 9:43 pm WST Monday 4 May 2026 (issued every 10 minutes, with the page automatically refreshed every 10 minutes)

About coastal observations | Map of coastal stations | Coastal observations for WA | Marine services | Other Formats
Station Details ID: 011053 Name: RED ROCKS POINT Lat: -32.20 Lon: 127.53 Height: 3.1 m
Data from the previous 72 hours. | See also: Recent months at Red Rocks Point
Date/Time
WST
Wind Sea
Height
m
Swell Vis
km
Cloud Weather Temp
°C
Press
MSL
hPa
Rain since
9am
mm
Dir  Spd
kts
Gust
kts
Height
m
Period
s
Dir
04/09:30pm SSE 13 17 - - - - - - - 17.0 1026.0 0.4
04/09:00pm SE 9 10 - - - - - - - 16.4 1026.1 0.4
04/08:30pm SSE 9 12 - - - - - - - 16.3 1026.1 0.4
04/08:00pm SSE 11 14 - - - - - - - 16.2 1026.1 0.4
04/07:30pm S 12 16 - - - - - - - 16.4 1026.1 0.4
04/07:00pm SSE 14 16 - - - - - - - 16.4 1025.8 0.4
04/06:30pm S 8 10 - - - - - - - 16.1 1025.5 0.4
04/06:00pm S 9 12 - - - - - - - 15.9 1025.3 0.4
04/05:30pm S 9 12 - - - - - - - 15.5 1025.2 0.4
04/05:00pm S 9 14 - - - - - - - 15.8 1024.8 0.4
04/04:30pm S 7 10 - - - - - - - 15.2 1024.7 0.4
04/04:00pm SSW 9 11 - - - - - - - 15.7 1024.5 0.4
04/03:30pm SSW 10 14 - - - - - - - 15.8 1024.3 0.4
04/03:00pm S 7 11 - - - - - - - 17.0 1024.3 0.0
04/02:30pm S 10 13 - - - - - - - 17.8 1024.1 0.0
04/02:00pm WSW 9 12 - - - - - - - 18.5 1024.0 0.0
04/01:30pm SW 11 16 - - - - - - - 18.7 1024.0 0.0
04/01:00pm SW 8 11 - - - - - - - 18.5 1023.8 0.0
04/12:30pm SSW 12 16 - - - - - - - 17.5 1024.0 0.0
04/12:00pm S 7 9 - - - - - - - 16.8 1024.2 0.0
04/11:30am SSE 7 10 - - - - - - - 18.0 1024.4 0.0
04/11:00am SW 9 14 - - - - - - - 18.4 1024.7 0.0
04/10:30am S 10 13 - - - - - - - 17.7 1024.9 0.0
04/10:00am SSW 14 19 - - - - - - - 17.8 1024.9 0.0
04/09:30am SSW 11 16 - - - - - - - 17.3 1025.0 0.0
04/09:00am SW 6 11 - - - - - - - 16.8 1024.9 2.4
04/08:30am SSW 13 19 - - - - - - - 16.6 1024.8 2.4
04/08:00am SSW 12 16 - - - - - - - 16.9 1024.6 2.4
04/07:30am SW 12 17 - - - - - - - 16.6 1024.3 2.4
04/07:00am SSW 12 16 - - - - - - - 16.3 1023.8 2.4
04/06:30am SSW 12 18 - - - - - - - 16.5 1023.3 2.4
04/06:00am SSW 16 21 - - - - - - - 16.4 1022.9 2.4
04/05:30am SSW 13 19 - - - - - - - 16.4 1022.5 2.4
04/05:00am SSW 14 18 - - - - - - - 16.3 1022.3 2.4
04/04:30am SSW 14 19 - - - - - - - 16.4 1022.0 2.4
04/04:00am SSW 11 16 - - - - - - - 16.3 1021.8 2.4
04/03:30am SSW 15 19 - - - - - - - 16.4 1021.5 2.4
04/03:00am SSW 11 18 - - - - - - - 16.3 1021.3 2.4
04/02:30am SSW 12 16 - - - - - - - 16.1 1021.2 2.4
04/02:00am SSW 13 19 - - - - - - - 16.3 1021.2 2.4
04/01:30am SSW 15 20 - - - - - - - 16.1 1021.3 2.4
04/01:00am SSW 14 18 - - - - - - - 16.0 1021.3 2.4
04/12:30am SSW 15 19 - - - - - - - 16.3 1021.2 2.4
04/12:00am SSW 15 21 - - - - - - - 16.3 1021.1 2.4
 
Date/Time
WST
Wind Sea
Height
m
Swell Vis
km
Cloud Weather Temp
°C
Press
MSL
hPa
Rain since
9am
mm
Dir  Spd
kts
Gust
kts
Height
m
Period
s
Dir
03/11:30pm SSW 14 22 - - - - - - - 16.0 1021.1 2.4
03/11:00pm SSW 16 22 - - - - - - - 16.3 1021.0 2.4
03/10:30pm SSW 14 17 - - - - - - - 16.0 1021.2 2.4
03/10:00pm SSW 17 23 - - - - - - - 16.4 1021.5 2.4
03/09:30pm SSW 15 20 - - - - - - - 16.4 1021.4 2.4
03/09:00pm SSW 15 22 - - - - - - - 15.9 1021.4 2.4
03/08:30pm SSW 16 26 - - - - - - - 15.4 1021.4 2.4
03/08:09pm SW 15 27 - - - - - - - 16.1 1021.1 2.4
03/08:00pm SW 10 16 - - - - - - - 15.5 1021.1 2.4
03/07:30pm WSW 12 18 - - - - - - - 16.1 1021.0 1.8
03/07:00pm WSW 13 19 - - - - - - - 15.9 1020.7 1.8
03/06:30pm WSW 15 23 - - - - - - - 15.4 1020.7 1.6
03/06:00pm WSW 16 26 - - - - - - - 16.5 1020.4 1.4
03/05:57pm WSW 15 26 - - - - - - - 17.0 1020.3 1.4
03/05:30pm WSW 12 18 - - - - - - - 17.1 1020.1 1.4
03/05:00pm WSW 12 19 - - - - - - - 16.7 1019.8 1.4
03/04:30pm WSW 12 17 - - - - - - - 17.0 1019.7 1.4
03/04:00pm SW 13 18 - - - - - - - 17.5 1019.7 1.4
03/03:30pm WSW 14 19 - - - - - - - 17.6 1019.7 1.4
03/03:00pm SW 14 19 - - - - - - - 18.0 1019.6 1.4
03/02:30pm SW 13 19 - - - - - - - 18.2 1019.4 1.4
03/02:00pm SW 12 18 - - - - - - - 17.9 1019.3 1.4
03/01:30pm SW 15 21 - - - - - - - 18.4 1019.2 1.4
03/01:00pm SW 13 19 - - - - - - - 18.0 1019.1 1.4
03/12:30pm SW 14 19 - - - - - - - 18.2 1019.2 1.4
03/12:00pm SW 15 21 - - - - - - - 17.9 1019.3 1.4
03/11:30am SW 13 19 - - - - - - - 17.1 1019.5 1.4
03/11:00am WSW 10 17 - - - - - - - 16.5 1019.6 1.4
03/10:30am WSW 8 13 - - - - - - - 16.0 1019.8 1.0
03/10:00am WNW 8 13 - - - - - - - 15.5 1020.0 1.0
03/09:30am WNW 9 14 - - - - - - - 14.4 1019.8 0.0
03/09:00am NW 9 15 - - - - - - Rain 14.1 1019.7 8.2
03/08:30am WNW 10 13 - - - - - - - 12.8 1019.7 8.0
03/08:00am NW 9 14 - - - - - - - 12.8 1019.4 7.8
03/07:30am NW 9 14 - - - - - - - 12.2 1019.0 7.4
03/07:00am NW 7 10 - - - - - - - 11.0 1018.9 7.4
03/06:30am NW 9 13 - - - - - - - 10.7 1018.4 6.8
03/06:00am NW 9 14 - - - - - - - 10.4 1018.2 6.8
03/05:30am NW 8 13 - - - - - - - 10.5 1018.0 6.8
03/05:00am WNW 9 11 - - - - - - - 10.5 1017.7 6.8
03/04:30am WNW 10 15 - - - - - - - 10.7 1017.6 6.8
03/04:00am NW 8 11 - - - - - - - 10.3 1017.5 6.6
03/03:30am NW 9 12 - - - - - - - 10.4 1017.2 6.6
03/03:00am WNW 9 13 - - - - - - - 10.5 1017.5 6.0
03/02:30am NW 9 14 - - - - - - - 10.4 1017.2 6.0
03/02:00am NW 10 16 - - - - - - - 10.3 1017.3 6.0
03/01:30am WNW 9 13 - - - - - - - 10.5 1017.4 5.8
03/01:00am NW 8 13 - - - - - - - 10.5 1017.2 5.8
03/12:30am NW 9 13 - - - - - - - 11.0 1017.5 5.6
03/12:00am WNW 9 13 - - - - - - Rain 11.2 1017.5 5.6
 
Date/Time
WST
Wind Sea
Height
m
Swell Vis
km
Cloud Weather Temp
°C
Press
MSL
hPa
Rain since
9am
mm
Dir  Spd
kts
Gust
kts
Height
m
Period
s
Dir
02/11:30pm NW 9 13 - - - - - - - 10.9 1017.4 5.0
02/11:00pm NW 8 11 - - - - - - - 11.0 1017.5 5.0
02/10:30pm WNW 9 13 - - - - - - - 11.0 1017.6 4.2
02/10:00pm NW 8 12 - - - - - - - 10.9 1017.8 4.2
02/09:30pm WNW 8 11 - - - - - - - 11.2 1018.2 4.2
02/09:00pm WNW 9 14 - - - - - - Recent precip. 11.3 1018.3 3.6
02/08:30pm NW 7 10 - - - - - - - 11.2 1018.1 3.4
02/08:00pm NW 9 14 - - - - - - - 11.3 1018.2 3.4
02/07:30pm WNW 8 12 - - - - - - - 11.5 1018.3 3.4
02/07:00pm NW 7 11 - - - - - - - 11.2 1017.9 3.4
02/06:30pm NW 8 10 - - - - - - - 11.4 1017.9 3.4
02/06:00pm WNW 7 11 - - - - - - Rain 11.7 1017.7 2.8
02/05:30pm WNW 10 15 - - - - - - - 12.2 1017.3 0.6
02/05:00pm WNW 9 13 - - - - - - - 12.8 1017.1 0.6
02/04:30pm WNW 9 12 - - - - - - - 13.5 1016.8 0.6
02/04:00pm WNW 9 15 - - - - - - - 14.3 1016.5 0.6
02/03:30pm SW 13 19 - - - - - - - 16.0 1016.1 0.6
02/03:00pm SW 12 19 - - - - - - - 17.1 1016.0 0.6
02/02:30pm WSW 15 22 - - - - - - - 17.9 1015.6 0.6
02/02:00pm SW 15 23 - - - - - - - 18.1 1015.5 0.6
02/01:30pm SW 16 23 - - - - - - - 18.4 1015.3 0.6
02/01:00pm SW 17 27 - - - - - - - 17.8 1015.2 0.4
02/12:36pm SW 15 27 - - - - - - - 17.7 1015.1 0.4
02/12:30pm SW 17 25 - - - - - - - 17.7 1015.0 0.4
02/12:00pm SW 16 27 - - - - - - Recent precip. 15.7 1015.0 0.4
02/11:44am SW 18 33 - - - - - - - 16.9 1015.2 0.2
02/11:30am SW 18 26 - - - - - - - 16.1 1015.3 0.2
02/11:00am SW 17 28 - - - - - - - 17.6 1015.4 0.0
02/10:32am WSW 15 29 - - - - - - - 16.2 1015.5 0.0
02/10:30am WSW 13 21 - - - - - - - 16.0 1015.5 0.0
02/10:00am SW 17 26 - - - - - - - 16.2 1015.3 0.0
02/09:30am SW 16 25 - - - - - - - 14.9 1015.3 0.0
02/09:05am SW 15 27 - - - - - - - 14.1 1015.0 0.0
02/09:00am SW 14 24 - - - - - - - 13.8 1014.9 6.8
02/08:30am WNW 11 17 - - - - - - - 11.9 1014.9 6.8
02/08:00am NW 10 14 - - - - - - - 10.5 1014.9 6.8
02/07:30am WNW 10 16 - - - - - - - 10.1 1014.6 4.6
02/07:00am WNW 11 19 - - - - - - - 9.2 1013.9 3.6
02/06:30am NW 11 17 - - - - - - - 9.0 1013.3 3.4
02/06:00am WNW 13 19 - - - - - - Rain 9.0 1013.7 2.8
02/05:30am WNW 13 18 - - - - - - - 8.8 1013.1 2.2
02/05:00am NW 11 16 - - - - - - - 8.7 1013.2 2.2
02/04:30am WNW 11 15 - - - - - - - 8.9 1013.3 1.8
02/04:00am NW 12 19 - - - - - - - 8.7 1012.4 1.6
02/03:30am NW 10 16 - - - - - - - 8.8 1012.6 1.6
02/03:00am WNW 10 15 - - - - - - Rain 9.0 1012.7 1.4
02/02:30am WNW 13 19 - - - - - - - 9.1 1012.6 1.2
02/02:00am NW 14 20 - - - - - - - 9.4 1012.5 1.0
02/01:30am WNW 11 22 - - - - - - - 9.5 1012.5 1.0
02/01:00am WNW 11 17 - - - - - - - 9.9 1012.6 1.0
02/12:30am WNW 13 21 - - - - - - - 10.1 1012.6 1.0
02/12:00am WNW 11 17 - - - - - - - 10.2 1012.6 1.0
 
Date/Time
WST
Wind Sea
Height
m
Swell Vis
km
Cloud Weather Temp
°C
Press
MSL
hPa
Rain since
9am
mm
Dir  Spd
kts
Gust
kts
Height
m
Period
s
Dir
01/11:30pm WNW 11 21 - - - - - - - 10.3 1012.8 1.0
01/11:00pm WNW 12 19 - - - - - - - 10.6 1013.2 1.0
01/10:30pm NW 10 15 - - - - - - - 10.7 1013.1 1.0
01/10:00pm WNW 10 17 - - - - - - - 11.1 1013.5 1.0

Other formats

Comma delimited format used in spreadsheet applications
http://www.bom.gov.au/fwo/IDW60701/IDW60701.94644.axf

JavaScript Object Notation format (JSON) in row-major order
http://www.bom.gov.au/fwo/IDW60701/IDW60701.94644.json

Data quality

Most of these data are generated automatically and are frequently updated. Quality checks on data are not normally performed. It is possible for incorrect values to appear. Refer to information at About Latest Weather Observations and please check the disclaimer before using these data.